createdAt,value
2022-11-20T00:00:32.568Z,6.23
2022-11-20T00:03:18.554Z,6.21
2022-11-20T00:05:46.625Z,6.20
2022-11-20T00:08:15.006Z,6.19
2022-11-20T00:10:42.875Z,6.21
2022-11-20T00:13:11.460Z,6.23
2022-11-20T00:15:39.431Z,6.25
2022-11-20T00:18:07.293Z,6.27
2022-11-20T00:20:35.265Z,6.30
2022-11-20T00:23:03.433Z,6.35
2022-11-20T00:25:31.220Z,6.39
2022-11-20T00:27:59.067Z,6.43
2022-11-20T00:30:26.906Z,6.46
2022-11-20T00:32:57.365Z,6.50
2022-11-20T00:35:25.227Z,6.55
2022-11-20T00:37:53.198Z,6.60
2022-11-20T00:40:21.069Z,6.64
2022-11-20T00:42:48.931Z,6.68
2022-11-20T00:45:16.905Z,6.72
2022-11-20T00:47:44.771Z,6.77
2022-11-20T00:50:12.742Z,6.79
2022-11-20T00:52:40.593Z,6.82
2022-11-20T00:55:08.476Z,6.81
2022-11-20T00:57:36.441Z,6.79
2022-11-20T01:00:04.627Z,6.78
2022-11-20T01:02:32.486Z,6.76
2022-11-20T01:05:00.453Z,6.76
2022-11-20T01:07:28.410Z,6.72
2022-11-20T01:09:56.209Z,6.69
2022-11-20T01:12:24.053Z,6.64
2022-11-20T01:14:51.885Z,6.58
2022-11-20T01:17:19.853Z,6.54
2022-11-20T01:19:50.489Z,6.48
2022-11-20T01:22:18.388Z,6.44
2022-11-20T01:24:46.259Z,6.42
2022-11-20T01:27:14.228Z,6.39
2022-11-20T01:29:42.192Z,6.36
2022-11-20T01:32:10.166Z,6.33
2022-11-20T01:34:38.028Z,6.32
2022-11-20T01:37:05.897Z,6.30
2022-11-20T01:39:33.844Z,6.29
2022-11-20T01:42:20.286Z,6.28
2022-11-20T01:45:11.588Z,6.28
2022-11-20T01:47:45.971Z,6.20
2022-11-20T01:50:19.610Z,6.07
2022-11-20T01:52:50.498Z,6.07
2022-11-20T01:55:23.439Z,6.04
2022-11-20T01:57:51.807Z,6.02
2022-11-20T02:00:20.906Z,6.02
2022-11-20T02:02:51.129Z,6.03
2022-11-20T02:05:19.006Z,6.03
2022-11-20T02:07:47.891Z,6.03
2022-11-20T02:10:16.174Z,6.03
2022-11-20T02:13:02.980Z,6.03
2022-11-20T02:15:30.942Z,6.04
2022-11-20T02:17:58.811Z,6.05
2022-11-20T02:20:26.983Z,6.04
2022-11-20T02:23:05.916Z,6.04
2022-11-20T02:25:34.905Z,5.99
2022-11-20T02:28:03.282Z,5.99
2022-11-20T02:30:31.173Z,5.99
2022-11-20T02:32:59.333Z,5.98
2022-11-20T02:35:27.107Z,5.98
2022-11-20T02:37:56.085Z,5.98
2022-11-20T02:40:24.359Z,5.98
2022-11-20T02:42:56.425Z,5.97
2022-11-20T02:45:25.115Z,5.98
2022-11-20T02:47:53.407Z,5.97
2022-11-20T02:50:21.275Z,5.97
2022-11-20T02:52:49.104Z,5.98
2022-11-20T02:55:17.096Z,5.99
2022-11-20T02:57:45.066Z,6.02
2022-11-20T03:00:13.537Z,6.04
2022-11-20T03:02:41.511Z,6.06
2022-11-20T03:05:09.487Z,6.09
2022-11-20T03:07:37.401Z,6.11
2022-11-20T03:10:05.937Z,6.13
2022-11-20T03:12:33.749Z,6.18
2022-11-20T03:15:01.770Z,6.23
2022-11-20T03:17:30.763Z,6.26
2022-11-20T03:19:58.630Z,6.26
2022-11-20T03:22:26.497Z,6.27
2022-11-20T03:24:54.465Z,6.29
2022-11-20T03:27:22.334Z,6.31
2022-11-20T03:29:50.204Z,6.38
2022-11-20T03:32:18.070Z,6.43
2022-11-20T03:34:46.036Z,6.51
2022-11-20T03:37:14.111Z,6.57
2022-11-20T03:39:41.974Z,6.60
2022-11-20T03:42:30.322Z,6.64
2022-11-20T03:44:58.197Z,6.67
2022-11-20T03:47:26.058Z,6.66
2022-11-20T03:49:53.924Z,6.64
2022-11-20T03:52:21.897Z,6.58
2022-11-20T03:54:49.713Z,6.55
2022-11-20T03:57:17.628Z,6.47
2022-11-20T03:59:45.508Z,6.44
2022-11-20T04:02:13.515Z,6.41
2022-11-20T04:04:41.638Z,6.38
2022-11-20T04:07:09.862Z,6.33
2022-11-20T04:09:37.889Z,6.28
2022-11-20T04:12:05.752Z,6.22
2022-11-20T04:14:33.623Z,6.15
2022-11-20T04:17:01.490Z,6.12
2022-11-20T04:19:29.353Z,6.09
2022-11-20T04:21:57.220Z,6.07
2022-11-20T04:24:25.101Z,6.06
2022-11-20T04:26:53.062Z,6.06
2022-11-20T04:29:21.415Z,6.05
2022-11-20T04:31:49.615Z,6.04
2022-11-20T04:34:17.483Z,6.05
2022-11-20T04:36:45.320Z,6.05
2022-11-20T04:39:15.279Z,6.05
2022-11-20T04:41:43.538Z,6.06
2022-11-20T04:44:11.813Z,6.06
2022-11-20T04:46:40.809Z,6.07
2022-11-20T04:49:09.441Z,6.07
2022-11-20T04:51:37.365Z,6.08
2022-11-20T04:54:05.342Z,6.08
2022-11-20T04:56:33.304Z,6.07
2022-11-20T04:59:02.291Z,6.06
2022-11-20T05:01:30.600Z,6.06
2022-11-20T05:03:58.470Z,6.05
2022-11-20T05:06:26.507Z,6.05
2022-11-20T05:08:54.372Z,6.03
2022-11-20T05:11:22.754Z,5.99
2022-11-20T05:13:51.852Z,6.00
2022-11-20T05:16:20.946Z,6.01
2022-11-20T05:18:49.334Z,6.03
2022-11-20T05:21:17.812Z,6.07
2022-11-20T05:23:46.292Z,6.11
2022-11-20T05:26:15.894Z,6.15
2022-11-20T05:28:44.274Z,6.17
2022-11-20T05:31:16.337Z,6.20
2022-11-20T05:33:44.923Z,6.27
2022-11-20T05:36:13.943Z,6.35
2022-11-20T05:38:42.607Z,6.42
2022-11-20T05:41:14.686Z,6.49
2022-11-20T05:43:43.455Z,6.51
2022-11-20T05:46:12.369Z,6.53
2022-11-20T05:48:41.237Z,6.54
2022-11-20T05:51:10.033Z,6.56
2022-11-20T05:53:37.917Z,6.59
2022-11-20T05:56:07.325Z,6.61
2022-11-20T05:58:35.470Z,6.60
2022-11-20T06:01:23.277Z,6.59
2022-11-20T06:03:52.124Z,6.59
2022-11-20T06:06:20.806Z,6.65
2022-11-20T06:08:48.844Z,6.69
2022-11-20T06:11:17.546Z,6.73
2022-11-20T06:13:45.917Z,6.73
2022-11-20T06:16:15.095Z,6.71
2022-11-20T06:18:42.987Z,6.69
2022-11-20T06:21:15.462Z,6.69
2022-11-20T06:23:43.956Z,6.69
2022-11-20T06:26:15.801Z,6.69
2022-11-20T06:28:43.976Z,6.71
2022-11-20T06:31:12.915Z,6.69
2022-11-20T06:33:40.949Z,6.67
2022-11-20T06:36:10.980Z,6.66
2022-11-20T06:38:39.623Z,6.65
2022-11-20T06:41:08.740Z,6.65
2022-11-20T06:43:36.603Z,6.64
2022-11-20T06:46:04.575Z,6.63
2022-11-20T06:48:32.958Z,6.65
2022-11-20T06:51:01.026Z,6.64
2022-11-20T06:53:28.891Z,6.64
2022-11-20T06:55:58.909Z,6.62
2022-11-20T06:58:30.884Z,6.62
2022-11-20T07:00:59.537Z,6.62
2022-11-20T07:03:27.945Z,6.62
2022-11-20T07:05:57.244Z,6.59
2022-11-20T07:08:25.729Z,6.59
2022-11-20T07:10:53.531Z,6.60
2022-11-20T07:13:21.351Z,6.59
2022-11-20T07:15:49.175Z,6.59
2022-11-20T07:18:16.958Z,6.61
2022-11-20T07:20:44.850Z,6.61
2022-11-20T07:23:12.819Z,6.61
2022-11-20T07:25:40.693Z,6.60
2022-11-20T07:28:08.665Z,6.60
2022-11-20T07:30:36.525Z,6.57
2022-11-20T07:33:04.706Z,6.53
2022-11-20T07:35:32.569Z,6.53
2022-11-20T07:38:00.517Z,6.55
2022-11-20T07:40:29.222Z,6.58
2022-11-20T07:42:57.504Z,6.62
2022-11-20T07:45:25.466Z,6.66
2022-11-20T07:47:53.333Z,6.70
2022-11-20T07:50:21.211Z,6.74
2022-11-20T07:52:49.170Z,6.78
2022-11-20T07:55:17.452Z,6.82
2022-11-20T07:57:45.319Z,6.85
2022-11-20T08:00:13.889Z,6.88
2022-11-20T08:02:42.276Z,6.90
2022-11-20T08:05:11.197Z,6.94
2022-11-20T08:07:40.087Z,6.96
2022-11-20T08:10:09.100Z,7.00
2022-11-20T08:12:55.970Z,7.03
2022-11-20T08:15:23.834Z,7.06
2022-11-20T08:18:08.620Z,7.08
2022-11-20T08:20:40.250Z,7.10
2022-11-20T08:23:09.046Z,7.12
2022-11-20T08:25:37.835Z,7.13
2022-11-20T08:28:15.877Z,7.14
2022-11-20T08:30:48.636Z,7.18
2022-11-20T08:33:18.517Z,7.22
2022-11-20T08:35:46.430Z,7.27
2022-11-20T08:38:14.283Z,7.30
2022-11-20T08:40:42.041Z,7.29
2022-11-20T08:43:09.896Z,7.29
2022-11-20T08:45:37.734Z,7.29
2022-11-20T08:48:05.820Z,7.29
2022-11-20T08:50:34.114Z,7.33
2022-11-20T08:53:06.016Z,7.38
2022-11-20T08:55:36.510Z,7.44
2022-11-20T08:58:05.345Z,7.50
2022-11-20T09:00:33.731Z,7.59
2022-11-20T09:03:02.476Z,7.71
2022-11-20T09:05:30.764Z,7.75
2022-11-20T09:07:58.907Z,7.78
2022-11-20T09:10:27.263Z,7.79
2022-11-20T09:12:56.477Z,7.78
2022-11-20T09:15:25.276Z,7.77
2022-11-20T09:17:57.513Z,7.80
2022-11-20T09:20:26.032Z,7.80
2022-11-20T09:22:53.999Z,7.80
2022-11-20T09:25:21.939Z,7.79
2022-11-20T09:27:55.572Z,7.78
2022-11-20T09:30:23.434Z,7.76
2022-11-20T09:32:51.408Z,7.77
2022-11-20T09:35:19.684Z,7.77
2022-11-20T09:37:47.547Z,7.76
2022-11-20T09:40:23.194Z,7.74
2022-11-20T09:42:57.519Z,7.76
2022-11-20T09:45:44.018Z,7.80
2022-11-20T09:48:11.783Z,7.85
2022-11-20T09:50:48.897Z,7.85
2022-11-20T09:53:19.498Z,7.86
2022-11-20T09:55:47.863Z,7.88
2022-11-20T09:58:36.847Z,7.90
2022-11-20T10:01:11.521Z,7.93
2022-11-20T10:03:51.520Z,7.93
2022-11-20T10:06:22.769Z,7.88
2022-11-20T10:08:56.267Z,7.87
2022-11-20T10:11:42.969Z,7.77
2022-11-20T10:14:10.939Z,7.76
2022-11-20T10:16:47.924Z,7.79
2022-11-20T10:19:15.793Z,7.83
2022-11-20T10:21:56.053Z,7.85
2022-11-20T10:24:42.518Z,7.87
2022-11-20T10:27:25.775Z,7.86
2022-11-20T10:30:13.513Z,7.84
2022-11-20T10:32:48.757Z,7.82
2022-11-20T10:35:29.839Z,7.80
2022-11-20T10:37:59.718Z,7.81
2022-11-20T10:40:39.794Z,7.80
2022-11-20T10:43:10.730Z,7.81
2022-11-20T10:45:45.153Z,7.82
2022-11-20T10:48:13.233Z,7.82
2022-11-20T10:50:48.269Z,7.78
2022-11-20T10:53:42.658Z,7.83
2022-11-20T10:56:18.000Z,7.87
2022-11-20T10:59:00.917Z,7.92
2022-11-20T11:01:29.002Z,7.98
2022-11-20T11:03:58.384Z,8.02
2022-11-20T11:06:26.459Z,8.06
2022-11-20T11:08:56.395Z,8.07
2022-11-20T11:11:25.571Z,8.09
2022-11-20T11:13:53.545Z,8.08
2022-11-20T11:16:23.260Z,8.09
2022-11-20T11:18:51.633Z,8.09
2022-11-20T11:21:24.594Z,8.09
2022-11-20T11:24:19.721Z,8.09
2022-11-20T11:27:05.616Z,8.11
2022-11-20T11:29:34.405Z,8.13
2022-11-20T11:32:10.056Z,8.15
2022-11-20T11:34:38.149Z,8.16
2022-11-20T11:37:12.139Z,8.17
2022-11-20T11:39:42.563Z,8.18
2022-11-20T11:42:14.001Z,8.19
2022-11-20T11:45:04.309Z,8.21
2022-11-20T11:47:34.016Z,8.22
2022-11-20T11:50:22.362Z,8.22
2022-11-20T11:52:56.449Z,8.24
2022-11-20T11:55:27.310Z,8.27
2022-11-20T11:57:58.249Z,8.30
2022-11-20T12:00:27.038Z,8.31
2022-11-20T12:03:01.769Z,8.34
2022-11-20T12:05:37.721Z,8.38
2022-11-20T12:08:10.991Z,8.42
2022-11-20T12:10:46.261Z,8.48
2022-11-20T12:13:32.175Z,8.52
2022-11-20T12:16:00.831Z,8.60
2022-11-20T12:18:29.522Z,8.67
2022-11-20T12:21:00.663Z,8.74
2022-11-20T12:23:28.838Z,8.81
2022-11-20T12:25:58.445Z,8.88
2022-11-20T12:28:43.320Z,8.94
2022-11-20T12:31:17.712Z,8.97
2022-11-20T12:34:04.699Z,9.01
2022-11-20T12:36:59.035Z,9.02
2022-11-20T12:39:36.021Z,9.00
2022-11-20T12:42:28.917Z,9.02
2022-11-20T12:45:15.504Z,9.02
2022-11-20T12:48:02.184Z,9.00
2022-11-20T12:51:13.432Z,8.98
2022-11-20T12:53:55.569Z,8.94
2022-11-20T12:56:29.688Z,8.92
2022-11-20T12:58:57.554Z,8.90
2022-11-20T13:01:41.005Z,8.86
2022-11-20T13:04:27.854Z,8.83
2022-11-20T13:06:56.098Z,8.81
2022-11-20T13:09:24.967Z,8.79
2022-11-20T13:11:58.663Z,8.76
2022-11-20T13:14:27.050Z,8.72
2022-11-20T13:17:10.267Z,8.69
2022-11-20T13:19:38.649Z,8.66
2022-11-20T13:22:07.032Z,8.64
2022-11-20T13:24:34.780Z,8.59
2022-11-20T13:27:08.813Z,8.55
2022-11-20T13:29:38.013Z,8.53
2022-11-20T13:32:08.303Z,8.50
2022-11-20T13:34:37.224Z,8.43
2022-11-20T13:37:05.084Z,8.39
2022-11-20T13:39:37.052Z,8.35
2022-11-20T13:42:13.614Z,8.32
2022-11-20T13:45:01.643Z,8.30
2022-11-20T13:47:30.143Z,8.28
2022-11-20T13:50:00.455Z,8.22
2022-11-20T13:52:28.233Z,8.21
2022-11-20T13:55:05.207Z,8.20
2022-11-20T13:57:55.499Z,8.20
2022-11-20T14:00:24.423Z,8.18
2022-11-20T14:03:01.685Z,8.16
2022-11-20T14:05:31.888Z,8.12
2022-11-20T14:08:00.011Z,8.10
2022-11-20T14:10:32.016Z,8.09
2022-11-20T14:13:11.078Z,8.08
2022-11-20T14:15:44.827Z,8.05
2022-11-20T14:18:14.925Z,8.02
2022-11-20T14:20:44.193Z,7.97
2022-11-20T14:23:12.366Z,7.94
2022-11-20T14:25:43.716Z,7.84
2022-11-20T14:28:12.920Z,7.87
2022-11-20T14:30:45.799Z,7.88
2022-11-20T14:33:15.099Z,7.88
2022-11-20T14:35:47.377Z,7.92
2022-11-20T14:38:17.186Z,7.94
2022-11-20T14:40:45.259Z,7.99
2022-11-20T14:43:19.374Z,8.05
2022-11-20T14:45:50.103Z,8.13
2022-11-20T14:48:17.975Z,8.22
2022-11-20T14:50:45.843Z,8.30
2022-11-20T14:53:23.015Z,8.35
2022-11-20T14:55:58.808Z,8.40
2022-11-20T14:58:29.162Z,8.41
2022-11-20T15:01:01.421Z,8.39
2022-11-20T15:03:36.820Z,8.40
2022-11-20T15:06:05.505Z,8.41
2022-11-20T15:08:33.775Z,8.41
2022-11-20T15:11:01.639Z,8.41
2022-11-20T15:13:39.856Z,8.42
2022-11-20T15:16:24.408Z,8.42
2022-11-20T15:18:52.796Z,8.42
2022-11-20T15:21:24.045Z,8.42
2022-11-20T15:23:52.108Z,8.40
2022-11-20T15:26:24.384Z,8.35
2022-11-20T15:28:53.068Z,8.32
2022-11-20T15:31:22.267Z,8.30
2022-11-20T15:33:50.437Z,8.27
2022-11-20T15:36:18.412Z,8.22
2022-11-20T15:38:46.375Z,8.18
2022-11-20T15:41:14.346Z,8.14
2022-11-20T15:43:42.319Z,8.11
2022-11-20T15:46:12.737Z,8.09
2022-11-20T15:48:47.636Z,8.07
2022-11-20T15:51:30.800Z,8.06
2022-11-20T15:53:59.214Z,8.05
2022-11-20T15:56:27.358Z,8.03
2022-11-20T15:58:55.331Z,8.01
2022-11-20T16:01:23.497Z,7.99
2022-11-20T16:03:51.568Z,7.97
2022-11-20T16:06:19.639Z,7.94
2022-11-20T16:08:47.504Z,7.90
2022-11-20T16:11:16.433Z,7.87
2022-11-20T16:14:02.804Z,7.85
2022-11-20T16:16:32.263Z,7.84
2022-11-20T16:19:01.089Z,7.83
2022-11-20T16:21:32.229Z,7.82
2022-11-20T16:24:05.120Z,7.81
2022-11-20T16:26:33.407Z,7.78
2022-11-20T16:29:02.083Z,7.77
2022-11-20T16:31:30.239Z,7.76
2022-11-20T16:33:59.456Z,7.74
2022-11-20T16:36:28.754Z,7.73
2022-11-20T16:39:00.719Z,7.73
2022-11-20T16:41:30.761Z,7.73
2022-11-20T16:44:00.146Z,7.69
2022-11-20T16:46:31.589Z,7.68
2022-11-20T16:49:00.891Z,7.66
2022-11-20T16:51:29.884Z,7.65
2022-11-20T16:54:01.746Z,7.65
2022-11-20T16:56:29.631Z,7.65
2022-11-20T16:58:58.608Z,7.65
2022-11-20T17:01:28.953Z,7.64
2022-11-20T17:03:58.410Z,7.62
2022-11-20T17:06:28.044Z,7.61
2022-11-20T17:08:56.408Z,7.59
2022-11-20T17:11:24.799Z,7.59
2022-11-20T17:13:53.079Z,7.57
2022-11-20T17:16:23.098Z,7.56
2022-11-20T17:18:51.203Z,7.55
2022-11-20T17:21:19.352Z,7.53
2022-11-20T17:23:47.721Z,7.52
2022-11-20T17:26:16.830Z,7.55
2022-11-20T17:28:46.327Z,7.57
2022-11-20T17:31:15.932Z,7.60
2022-11-20T17:33:45.126Z,7.62
2022-11-20T17:36:14.591Z,7.62
2022-11-20T17:38:43.002Z,7.66
2022-11-20T17:41:12.191Z,7.68
2022-11-20T17:43:40.385Z,7.72
2022-11-20T17:46:09.866Z,7.76
2022-11-20T17:48:38.367Z,7.82
2022-11-20T17:51:06.544Z,7.86
2022-11-20T17:53:35.642Z,7.91
2022-11-20T17:56:22.455Z,7.98
2022-11-20T17:58:50.322Z,8.02
2022-11-20T18:01:18.574Z,8.08
2022-11-20T18:03:47.399Z,8.12
2022-11-20T18:06:16.887Z,8.16
2022-11-20T18:08:44.949Z,8.15
2022-11-20T18:11:14.553Z,8.12
2022-11-20T18:14:01.587Z,8.10
2022-11-20T18:16:30.483Z,8.12
2022-11-20T18:18:59.585Z,8.13
2022-11-20T18:21:28.344Z,8.14
2022-11-20T18:23:56.438Z,8.12
2022-11-20T18:26:25.536Z,8.08
2022-11-20T18:28:53.812Z,8.02
2022-11-20T18:31:22.287Z,7.97
2022-11-20T18:33:52.618Z,7.94
2022-11-20T18:36:25.497Z,7.92
2022-11-20T18:38:56.238Z,7.90
2022-11-20T18:41:44.477Z,7.87
2022-11-20T18:44:32.413Z,7.80
2022-11-20T18:47:00.484Z,7.78
2022-11-20T18:49:28.459Z,7.76
2022-11-20T18:51:56.526Z,7.73
2022-11-20T18:54:24.954Z,7.69
2022-11-20T18:56:53.490Z,7.61
2022-11-20T18:59:21.945Z,7.57
2022-11-20T19:01:49.989Z,7.49
2022-11-20T19:04:18.333Z,7.44
2022-11-20T19:06:49.558Z,7.39
2022-11-20T19:09:17.541Z,7.38
2022-11-20T19:11:45.609Z,7.36
2022-11-20T19:14:13.581Z,7.34
2022-11-20T19:16:43.391Z,7.33
2022-11-20T19:19:11.365Z,7.30
2022-11-20T19:21:39.433Z,7.30
2022-11-20T19:24:07.415Z,7.29
2022-11-20T19:26:36.290Z,7.28
2022-11-20T19:29:05.800Z,7.28
2022-11-20T19:31:33.751Z,7.28
2022-11-20T19:34:03.069Z,7.27
2022-11-20T19:36:32.779Z,7.26
2022-11-20T19:39:01.149Z,7.26
2022-11-20T19:41:31.612Z,7.26
2022-11-20T19:44:00.476Z,7.26
2022-11-20T19:46:29.474Z,7.26
2022-11-20T19:48:57.950Z,7.26
2022-11-20T19:51:27.129Z,7.27
2022-11-20T19:53:55.528Z,7.27
2022-11-20T19:56:24.017Z,7.27
2022-11-20T19:58:53.517Z,7.28
2022-11-20T20:01:23.138Z,7.28
2022-11-20T20:03:51.709Z,7.29
2022-11-20T20:06:22.477Z,7.30
2022-11-20T20:08:57.887Z,7.33
2022-11-20T20:11:26.984Z,7.33
2022-11-20T20:13:56.279Z,7.34
2022-11-20T20:16:25.163Z,7.35
2022-11-20T20:19:01.361Z,7.35
2022-11-20T20:21:30.760Z,7.35
2022-11-20T20:23:59.146Z,7.36
2022-11-20T20:26:28.215Z,7.36
2022-11-20T20:28:56.699Z,7.36
2022-11-20T20:31:26.098Z,7.37
2022-11-20T20:33:53.966Z,7.39
2022-11-20T20:36:23.265Z,7.40
2022-11-20T20:38:54.971Z,7.40
2022-11-20T20:41:25.093Z,7.42
2022-11-20T20:44:12.056Z,7.45
2022-11-20T20:46:40.234Z,7.50
2022-11-20T20:49:08.636Z,7.54
2022-11-20T20:51:36.784Z,7.57
2022-11-20T20:54:05.062Z,7.63
2022-11-20T20:56:33.033Z,7.69
2022-11-20T20:59:00.879Z,7.72
2022-11-20T21:01:29.690Z,7.75
2022-11-20T21:03:58.131Z,7.77
2022-11-20T21:06:26.956Z,7.80
2022-11-20T21:08:57.482Z,7.84
2022-11-20T21:11:25.862Z,7.88
2022-11-20T21:13:53.942Z,7.92
2022-11-20T21:16:25.288Z,7.99
2022-11-20T21:18:53.148Z,8.02
2022-11-20T21:21:39.967Z,8.04
2022-11-20T21:24:07.936Z,8.06
2022-11-20T21:26:35.799Z,8.08
2022-11-20T21:29:03.584Z,8.07
2022-11-20T21:31:31.426Z,8.03
2022-11-20T21:33:59.606Z,8.00
2022-11-20T21:36:28.901Z,7.94
2022-11-20T21:38:57.593Z,7.88
2022-11-20T21:41:27.406Z,7.84
2022-11-20T21:44:28.915Z,7.81
2022-11-20T21:46:44.460Z,7.77
2022-11-20T21:49:12.711Z,7.75
2022-11-20T21:51:40.782Z,7.73
2022-11-20T21:54:10.678Z,7.70
2022-11-20T21:56:38.871Z,7.67
2022-11-20T21:59:06.858Z,7.65
2022-11-20T22:01:34.968Z,7.63
2022-11-20T22:04:02.988Z,7.59
2022-11-20T22:06:34.857Z,7.54
2022-11-20T22:09:02.983Z,7.50
2022-11-20T22:11:30.898Z,7.48
2022-11-20T22:14:17.600Z,7.46
2022-11-20T22:16:45.368Z,7.44
2022-11-20T22:19:16.035Z,7.41
2022-11-20T22:21:43.962Z,7.38
2022-11-20T22:24:12.543Z,7.36
2022-11-20T22:26:40.866Z,7.35
2022-11-20T22:29:14.227Z,7.34
2022-11-20T22:31:42.597Z,7.32
2022-11-20T22:34:12.296Z,7.28
2022-11-20T22:36:40.653Z,7.27
2022-11-20T22:39:08.859Z,7.26
2022-11-20T22:41:36.830Z,7.26
2022-11-20T22:44:06.338Z,7.25
2022-11-20T22:46:35.434Z,7.24
2022-11-20T22:49:04.543Z,7.23
2022-11-20T22:51:33.522Z,7.22
2022-11-20T22:54:03.451Z,7.22
2022-11-20T22:56:31.406Z,7.22
2022-11-20T22:58:59.474Z,7.22
2022-11-20T23:01:28.381Z,7.22
2022-11-20T23:03:57.473Z,7.21
2022-11-20T23:06:25.849Z,7.21
2022-11-20T23:08:53.681Z,7.22
2022-11-20T23:11:26.185Z,7.22
2022-11-20T23:14:03.983Z,7.22
2022-11-20T23:16:32.624Z,7.22
2022-11-20T23:19:01.972Z,7.22
2022-11-20T23:21:30.164Z,7.22
2022-11-20T23:23:58.523Z,7.21
2022-11-20T23:26:28.233Z,7.19
2022-11-20T23:28:57.923Z,7.19
2022-11-20T23:31:26.842Z,7.17
2022-11-20T23:33:55.009Z,7.16
2022-11-20T23:36:22.980Z,7.16
2022-11-20T23:38:50.851Z,7.15
2022-11-20T23:41:18.718Z,7.17
2022-11-20T23:43:46.684Z,7.19
2022-11-20T23:46:16.733Z,7.21
2022-11-20T23:48:45.674Z,7.23
2022-11-20T23:51:13.900Z,7.25
2022-11-20T23:53:42.095Z,7.30
2022-11-20T23:56:10.603Z,7.33
2022-11-20T23:58:38.794Z,7.36
